Time;durP1;ratioP1;P1;durP2;ratioP2;P2;SDS_P1;SDS_P2;PMS_P1;PMS_P2;Temp;Humidity;BMP_temperature;BMP_pressure;BME280_temperature;BME280_humidity;BME280_pressure;Samples;Min_cycle;Max_cycle;Signal;HPM_P1;HPM_P2
2021/08/03 00:02:13;;;;;;;;;;;14.40;94.70;;;14.94;79.00;100421.94;5032495;28;20332;-89
2021/08/03 00:04:42;;;;;;;;;;;14.40;94.70;;;14.90;78.99;100410.59;5032552;28;20393;-89
2021/08/03 00:07:10;;;;;;;;;;;14.40;94.60;;;14.94;78.63;100411.00;5031387;28;20019;-88
2021/08/03 00:09:40;;;;;;;;;;;14.30;94.40;;;14.94;78.51;100406.34;5014465;28;19931;-88
2021/08/03 00:12:09;;;;;;;;;;;14.30;94.40;;;14.86;78.24;100404.69;5032174;28;20018;-88
2021/08/03 00:14:37;;;;;;;;;;;14.30;94.60;;;14.85;78.62;100410.41;5032246;28;19925;-89
2021/08/03 00:17:05;;;;;;;;;;;14.30;94.60;;;14.83;78.49;100410.63;5031339;28;20015;-89
2021/08/03 00:19:32;;;;;;;;;;;14.30;94.60;;;14.82;78.78;100411.66;5032063;28;19925;-89
2021/08/03 00:22:00;;;;;;;;;;;14.20;94.50;;;14.81;78.46;100407.25;5014044;28;19925;-90
2021/08/03 00:24:27;;;;;;;;;;;14.20;94.40;;;14.79;78.43;100408.50;5032029;28;19939;-89
2021/08/03 00:26:56;;;;;;;;;;;14.20;94.50;;;14.75;78.41;100412.72;5031247;28;19979;-89
2021/08/03 00:29:23;;;;;;;;;;;14.20;94.50;;;14.73;78.56;100409.38;5014184;28;20416;-89
2021/08/03 00:31:51;;;;;;;;;;;14.20;94.60;;;14.77;78.48;100416.09;5031963;28;19979;-89
2021/08/03 00:34:18;;;;;;;;;;;14.10;94.50;;;14.73;78.22;100410.19;5014143;28;19941;-88
2021/08/03 00:36:45;;;;;;;;;;;14.10;94.40;;;14.69;78.40;100419.91;5013377;28;19932;-89
2021/08/03 00:39:14;;;;;;;;;;;14.10;94.40;;;14.72;78.17;100410.44;5013988;28;19932;-89
2021/08/03 00:41:45;;;;;;;;;;;14.10;94.40;;;14.70;78.25;100415.25;5013778;28;19968;-88
2021/08/03 00:44:14;;;;;;;;;;;14.10;94.50;;;14.68;78.27;100412.75;5013774;28;19931;-89
2021/08/03 00:46:42;;;;;;;;;;;14.10;94.60;;;14.66;78.40;100414.88;5012976;28;19980;-89
2021/08/03 00:49:11;;;;;;;;;;;14.00;94.70;;;14.63;78.41;100413.38;5031601;28;19925;-88
2021/08/03 00:51:39;;;;;;;;;;;14.00;94.60;;;14.61;78.66;100409.19;5031396;28;20023;-88
2021/08/03 00:54:07;;;;;;;;;;;14.00;94.50;;;14.62;78.52;100402.63;5013606;28;19925;-90
2021/08/03 00:56:36;;;;;;;;;;;14.00;94.70;;;14.61;78.06;100401.81;5029644;28;19990;-88
2021/08/03 00:59:03;;;;;;;;;;;14.00;94.50;;;14.55;77.91;100401.81;5031337;28;20032;-88
2021/08/03 01:01:32;;;;;;;;;;;14.00;94.30;;;14.55;78.36;100402.63;5031279;28;19929;-89
2021/08/03 01:03:59;;;;;;;;;;;14.00;94.50;;;14.47;78.25;100392.75;5013460;28;19927;-89
2021/08/03 01:06:32;;;;;;;;;;;13.90;94.50;;;14.47;78.57;100392.75;5012780;28;20003;-88
2021/08/03 01:09:02;;;;;;;;;;;13.90;94.60;;;14.50;78.42;100396.13;5031259;28;19987;-89
2021/08/03 01:11:37;;;;;;;;;;;13.90;94.50;;;14.46;78.12;100398.44;5013076;28;19929;-89
2021/08/03 01:14:11;;;;;;;;;;;13.90;94.60;;;14.43;78.40;100399.72;5013184;28;19964;-88
2021/08/03 01:16:45;;;;;;;;;;;13.90;94.70;;;14.41;78.43;100398.22;5012408;28;19924;-88
2021/08/03 01:19:19;;;;;;;;;;;13.90;94.80;;;14.42;78.60;100394.44;5013111;28;19931;-88
2021/08/03 01:21:51;;;;;;;;;;;13.80;94.60;;;14.43;78.49;100402.47;5013005;28;19932;-89
2021/08/03 01:24:58;;;;;;;;;;;13.80;94.90;;;14.43;78.53;100394.25;5012766;28;19929;-88
2021/08/03 01:28:08;;;;;;;;;;;13.80;94.70;;;14.41;78.06;100396.34;5012181;28;19925;-88
2021/08/03 01:30:37;;;;;;;;;;;13.80;94.60;;;14.39;78.23;100395.72;5023293;28;19929;-89
2021/08/03 01:33:06;;;;;;;;;;;13.80;94.70;;;14.38;78.13;100394.03;5012843;28;19925;-89
2021/08/03 01:35:34;;;;;;;;;;;13.80;94.40;;;14.38;78.16;100394.03;5012775;28;19931;-88
2021/08/03 01:38:04;;;;;;;;;;;13.70;94.70;;;14.37;78.35;100399.72;5012137;28;19925;-88
2021/08/03 01:40:32;;;;;;;;;;;13.70;94.80;;;14.37;78.23;100394.22;5030657;28;19928;-89
2021/08/03 01:43:00;;;;;;;;;;;13.70;94.80;;;14.33;78.60;100387.50;5012565;28;19925;-88
2021/08/03 01:45:29;;;;;;;;;;;13.70;94.90;;;14.36;78.40;100387.09;5012442;28;19925;-88
2021/08/03 01:47:58;;;;;;;;;;;13.70;94.90;;;14.31;78.61;100384.13;5011852;28;20347;-89
2021/08/03 01:50:33;;;;;;;;;;;13.70;95.00;;;14.26;78.64;100382.06;5012437;28;19921;-89
2021/08/03 01:53:04;;;;;;;;;;;13.70;95.00;;;14.25;79.03;100385.84;5012398;28;19924;-89
2021/08/03 01:55:33;;;;;;;;;;;13.70;94.90;;;14.23;78.96;100386.03;5012042;28;19936;-89
2021/08/03 01:58:06;;;;;;;;;;;13.70;94.90;;;14.24;79.10;100384.13;5011781;28;20686;-88
2021/08/03 02:00:43;;;;;;;;;;;13.70;94.90;;;14.28;78.60;100374.47;5012280;28;19925;-88
2021/08/03 02:03:17;;;;;;;;;;;13.70;94.80;;;14.26;78.57;100387.53;5012291;28;20012;-90
2021/08/03 02:05:46;;;;;;;;;;;13.70;94.70;;;14.25;78.64;100381.19;5028655;28;20397;-88
2021/08/03 02:08:27;;;;;;;;;;;13.70;94.80;;;14.26;78.43;100379.31;5011802;28;19925;-89
2021/08/03 02:11:07;;;;;;;;;;;13.70;94.90;;;14.23;78.58;100377.00;5012209;28;19998;-89
2021/08/03 08:15:01;;;;;;;;;;;17.70;91.30;;;16.01;88.89;100288.59;4973235;28;20386;-86
2021/08/03 08:17:28;;;;;;;;;;;17.60;91.20;;;16.05;88.54;100285.38;4992166;28;19941;-85
2021/08/03 08:19:55;;;;;;;;;;;17.60;91.20;;;16.05;88.57;100285.38;4992838;28;20001;-86
2021/08/03 08:22:23;;;;;;;;;;;17.50;91.80;;;16.06;89.68;100284.34;4992714;28;19922;-86
2021/08/03 08:24:50;;;;;;;;;;;17.60;92.70;;;16.08;89.61;100280.28;4975564;28;19969;-86
2021/08/03 08:27:17;;;;;;;;;;;17.60;92.40;;;16.11;89.53;100281.75;4992020;28;19980;-85
2021/08/03 08:29:44;;;;;;;;;;;17.60;92.30;;;16.13;89.02;100276.88;4992794;28;19929;-86
2021/08/03 08:32:19;;;;;;;;;;;17.60;91.80;;;16.13;88.76;100271.38;4975087;28;19975;-86
2021/08/03 08:34:46;;;;;;;;;;;17.60;91.50;;;16.14;88.30;100279.38;4992760;28;20407;-86
2021/08/03 08:37:13;;;;;;;;;;;17.70;91.00;;;16.14;88.46;100279.38;4991890;28;19973;-86
2021/08/03 08:39:40;;;;;;;;;;;17.70;91.20;;;16.16;88.16;100271.78;4992496;28;19925;-86
2021/08/03 08:42:08;;;;;;;;;;;17.70;91.00;;;16.19;87.99;100262.22;4992368;28;19926;-85
2021/08/03 08:44:35;;;;;;;;;;;17.70;91.20;;;16.22;88.23;100264.50;4992131;28;19926;-85
2021/08/03 08:47:02;;;;;;;;;;;17.70;91.40;;;16.23;88.32;100261.53;4974028;28;19925;-85
2021/08/03 08:49:31;;;;;;;;;;;17.70;91.50;;;16.24;87.86;100262.41;4992350;28;19926;-85
2021/08/03 08:51:58;;;;;;;;;;;17.70;90.90;;;16.26;87.46;100253.91;4974403;28;19925;-86
2021/08/03 08:54:25;;;;;;;;;;;17.70;90.70;;;16.28;87.80;100263.63;4992149;28;19930;-86
2021/08/03 08:56:52;;;;;;;;;;;17.80;90.80;;;16.30;87.55;100255.97;4991716;28;19982;-85
2021/08/03 08:59:19;;;;;;;;;;;17.90;90.20;;;16.33;87.46;100255.50;4992233;28;19930;-85
2021/08/03 09:01:46;;;;;;;;;;;18.10;89.80;;;16.37;87.40;100256.75;4992221;28;20076;-86
2021/08/03 09:04:14;;;;;;;;;;;18.30;89.20;;;16.41;86.83;100251.63;4992148;28;19922;-86
2021/08/03 09:06:42;;;;;;;;;;;18.40;87.50;;;16.46;86.44;100253.69;4991283;28;20020;-86
2021/08/03 09:09:14;;;;;;;;;;;18.40;87.00;;;16.47;86.29;100249.84;4974693;28;19933;-86
2021/08/03 09:11:46;;;;;;;;;;;18.50;87.60;;;16.50;86.38;100260.41;4991812;28;19926;-85
2021/08/03 09:14:13;;;;;;;;;;;18.50;87.50;;;16.51;85.93;100251.09;4991320;28;20012;-86
2021/08/03 09:16:46;;;;;;;;;;;18.50;87.50;;;16.55;86.09;100253.13;4986410;28;19932;-85
2021/08/03 09:19:35;;;;;;;;;;;18.60;87.40;;;16.60;85.97;100245.06;4991738;28;19925;-85
2021/08/03 09:22:15;;;;;;;;;;;18.60;87.20;;;16.65;85.77;100255.34;4970155;28;19933;-86
2021/08/03 09:24:44;;;;;;;;;;;18.70;86.80;;;16.70;85.08;100255.50;4991798;28;19925;-86
2021/08/03 09:27:33;;;;;;;;;;;18.90;85.10;;;16.75;85.05;100252.91;4990974;28;19926;-86
2021/08/03 09:30:00;;;;;;;;;;;19.00;85.60;;;16.78;84.18;100246.91;4974227;28;19926;-86
2021/08/03 09:32:32;;;;;;;;;;;19.10;84.30;;;16.83;84.53;100245.41;4991396;28;20016;-86
2021/08/03 09:35:10;;;;;;;;;;;19.30;84.50;;;16.88;85.03;100248.31;4991301;28;19976;-86
2021/08/03 09:37:39;;;;;;;;;;;19.40;84.20;;;16.92;83.98;100239.34;4971478;28;19932;-86
2021/08/03 09:40:08;;;;;;;;;;;19.50;83.30;;;16.97;83.37;100242.25;4972032;28;19926;-85
2021/08/03 09:42:35;;;;;;;;;;;19.60;82.60;;;17.04;82.57;100249.56;4971811;28;20468;-86
2021/08/03 09:45:05;;;;;;;;;;;19.60;81.70;;;17.05;81.57;100241.06;4971908;28;19926;-86
2021/08/03 09:47:35;;;;;;;;;;;19.60;81.00;;;17.10;82.35;100241.22;4971056;28;19926;-86
2021/08/03 09:50:06;;;;;;;;;;;19.70;80.60;;;17.14;81.06;100244.34;4971959;28;20332;-86
2021/08/03 09:52:35;;;;;;;;;;;19.70;79.50;;;17.15;79.31;100246.88;4971460;28;19926;-86
2021/08/03 09:55:11;;;;;;;;;;;19.70;78.80;;;17.19;80.20;100247.22;4971680;28;20025;-85
2021/08/03 09:57:39;;;;;;;;;;;19.70;79.20;;;17.24;80.61;100243.75;4970885;28;19981;-86
2021/08/03 10:00:25;;;;;;;;;;;19.80;79.70;;;17.26;79.26;100247.94;4954104;28;20526;-85
2021/08/03 10:02:52;;;;;;;;;;;19.90;79.20;;;17.29;79.29;100239.25;4971527;28;19932;-86
2021/08/03 10:05:20;;;;;;;;;;;19.90;78.00;;;17.30;77.53;100240.06;4954089;28;19964;-85
2021/08/03 10:07:49;;;;;;;;;;;19.90;75.90;;;17.34;77.93;100238.50;4970764;28;19933;-85
2021/08/03 10:10:18;;;;;;;;;;;19.90;77.50;;;17.39;78.55;100235.91;4971437;28;19926;-85
2021/08/03 10:12:46;;;;;;;;;;;20.00;78.30;;;17.42;77.71;100234.59;4971181;28;20328;-86
2021/08/03 10:15:13;;;;;;;;;;;20.00;75.50;;;17.42;74.53;100224.44;4971279;28;20630;-86
2021/08/03 10:17:41;;;;;;;;;;;20.00;75.10;;;17.45;74.06;100232.19;4970523;28;19926;-86
2021/08/03 10:20:10;;;;;;;;;;;20.00;74.30;;;17.46;74.80;100225.63;4971224;28;19972;-86
2021/08/03 10:22:40;;;;;;;;;;;20.00;73.40;;;17.51;72.67;100222.16;4971106;28;19980;-87
2021/08/03 10:25:10;;;;;;;;;;;20.10;73.30;;;17.53;72.48;100226.34;4953739;28;20024;-86
2021/08/03 10:27:44;;;;;;;;;;;20.10;71.60;;;17.59;70.35;100225.41;4970283;28;20533;-87
2021/08/03 10:30:26;;;;;;;;;;;20.20;71.40;;;17.66;69.83;100227.19;4970997;28;19953;-86
2021/08/03 10:32:54;;;;;;;;;;;20.30;72.20;;;17.70;68.02;100223.72;4970916;28;19926;-86
2021/08/03 10:35:39;;;;;;;;;;;20.30;69.60;;;17.73;68.84;100222.44;4971013;28;20044;-86
2021/08/03 10:38:09;;;;;;;;;;;20.40;69.80;;;17.75;67.19;100217.50;4970372;28;19977;-86
2021/08/03 10:41:00;;;;;;;;;;;20.40;69.10;;;17.79;69.67;100214.03;4970869;28;20417;-86
2021/08/03 10:43:55;;;;;;;;;;;20.50;70.20;;;17.83;70.36;100210.81;4970851;28;20386;-86
2021/08/03 10:46:42;;;;;;;;;;;20.50;70.10;;;17.81;70.09;100216.56;4970176;28;19926;-86
2021/08/03 10:49:10;;;;;;;;;;;20.40;69.60;;;17.81;69.39;100219.31;4970798;28;19965;-86
2021/08/03 10:51:41;;;;;;;;;;;20.30;69.00;;;17.82;68.17;100215.47;4970689;28;19930;-86
2021/08/03 10:54:11;;;;;;;;;;;20.20;69.60;;;17.83;68.47;100217.16;4970721;28;19941;-86
2021/08/03 10:57:18;;;;;;;;;;;20.30;70.00;;;17.85;66.13;100212.25;4969831;28;19926;-86
2021/08/03 11:00:03;;;;;;;;;;;20.30;68.10;;;17.88;67.24;100211.78;4970692;28;19926;-86
2021/08/03 11:02:47;;;;;;;;;;;20.30;67.80;;;17.90;67.02;100200.56;4970477;28;19926;-86
2021/08/03 11:05:27;;;;;;;;;;;20.40;68.20;;;17.93;68.15;100208.31;4970591;28;19926;-86
2021/08/03 11:07:54;;;;;;;;;;;20.40;70.00;;;17.96;66.80;100202.34;4970078;28;19926;-86
2021/08/03 11:10:35;;;;;;;;;;;20.30;69.70;;;17.94;67.27;100210.81;4970534;28;20729;-86
2021/08/03 11:13:03;;;;;;;;;;;20.30;69.60;;;17.94;66.90;100199.81;4970341;28;19929;-86
2021/08/03 11:15:40;;;;;;;;;;;20.20;68.50;;;17.94;66.65;100205.31;4970407;28;19929;-86
2021/08/03 11:18:10;;;;;;;;;;;20.20;68.50;;;17.94;67.26;100202.56;4952206;28;20393;-86
2021/08/03 11:21:04;;;;;;;;;;;20.10;69.70;;;17.94;65.96;100204.50;4970385;28;19933;-86
2021/08/03 11:23:57;;;;;;;;;;;20.00;70.60;;;17.92;66.31;100212.16;4952944;28;20406;-86
2021/08/03 11:26:26;;;;;;;;;;;19.90;70.70;;;17.91;65.69;100208.53;4969531;28;20346;-86
2021/08/03 11:28:57;;;;;;;;;;;19.80;69.40;;;17.91;65.72;100205.78;4952882;28;19996;-85
2021/08/03 11:31:39;;;;;;;;;;;19.70;70.00;;;17.89;67.17;100204.38;4970122;28;19926;-86
2021/08/03 11:34:06;;;;;;;;;;;19.70;71.40;;;17.86;67.15;100202.94;4970332;28;19932;-86
2021/08/03 11:36:33;;;;;;;;;;;19.60;71.60;;;17.85;67.93;100201.25;4969551;28;19965;-86
2021/08/03 11:39:00;;;;;;;;;;;19.60;72.60;;;17.83;68.38;100195.13;4980520;28;19925;-86
2021/08/03 11:41:27;;;;;;;;;;;19.50;72.70;;;17.81;68.09;100194.53;4993451;28;19929;-86
2021/08/03 11:43:55;;;;;;;;;;;19.50;72.20;;;17.79;67.10;100197.50;4993657;28;19973;-86
2021/08/03 11:46:26;;;;;;;;;;;19.50;71.90;;;17.80;67.25;100192.88;4992859;28;19926;-87
2021/08/03 11:49:05;;;;;;;;;;;19.40;71.60;;;17.78;67.37;100186.75;4993478;28;20437;-86
2021/08/03 11:51:36;;;;;;;;;;;19.30;72.10;;;17.77;68.29;100187.84;4975861;28;20378;-86
2021/08/03 11:54:14;;;;;;;;;;;19.30;73.70;;;17.75;68.91;100192.75;4993171;28;19925;-86
2021/08/03 11:56:41;;;;;;;;;;;19.30;74.80;;;17.74;69.94;100189.16;4992499;28;20612;-86
2021/08/03 11:59:11;;;;;;;;;;;19.20;75.60;;;17.71;69.55;100192.38;4975566;28;20353;-86
2021/08/03 12:01:49;;;;;;;;;;;19.20;75.60;;;17.70;70.75;100181.59;4993038;28;19974;-86
2021/08/03 12:04:18;;;;;;;;;;;19.10;76.60;;;17.67;70.76;100182.06;4993069;28;20382;-86
2021/08/03 12:06:46;;;;;;;;;;;19.10;76.90;;;17.66;70.28;100188.66;4992356;28;19932;-86
2021/08/03 12:09:13;;;;;;;;;;;19.10;76.40;;;17.65;70.55;100178.72;4993184;28;19992;-87
2021/08/03 12:11:40;;;;;;;;;;;19.10;77.00;;;17.64;71.49;100183.41;4992956;28;19925;-86
2021/08/03 12:14:08;;;;;;;;;;;19.00;77.40;;;17.63;70.24;100187.25;4992853;28;20341;-86
2021/08/03 12:16:35;;;;;;;;;;;19.00;76.00;;;17.64;70.25;100190.81;4992236;28;19926;-86
2021/08/03 12:19:03;;;;;;;;;;;19.00;76.70;;;17.63;71.56;100191.88;4992954;28;19976;-86
2021/08/03 12:21:37;;;;;;;;;;;19.00;77.60;;;17.61;72.40;100191.28;4975192;28;19972;-86
2021/08/03 12:24:07;;;;;;;;;;;19.00;78.30;;;17.59;72.99;100186.88;4992694;28;19973;-86
2021/08/03 12:26:35;;;;;;;;;;;19.00;78.70;;;17.58;73.78;100185.19;4991862;28;19926;-86
2021/08/03 12:29:03;;;;;;;;;;;19.00;79.20;;;17.58;74.21;100195.38;4992755;28;19980;-86
2021/08/03 12:31:32;;;;;;;;;;;19.00;79.50;;;17.57;74.42;100188.19;4974960;28;19956;-86
2021/08/03 12:34:13;;;;;;;;;;;19.00;80.00;;;17.55;74.84;100185.69;4992477;28;20405;-87
2021/08/03 12:36:50;;;;;;;;;;;19.00;80.40;;;17.52;74.57;100179.81;4991892;28;19925;-86
2021/08/03 12:39:23;;;;;;;;;;;19.00;80.30;;;17.51;74.66;100178.97;4992514;28;19925;-86
2021/08/03 12:42:05;;;;;;;;;;;18.90;80.40;;;17.51;74.89;100183.63;4992493;28;19932;-87
2021/08/03 12:44:34;;;;;;;;;;;18.90;80.50;;;17.51;75.30;100178.13;4992468;28;19926;-85
2021/08/03 12:47:12;;;;;;;;;;;18.90;81.00;;;17.51;75.38;100184.47;4974147;28;19925;-86
2021/08/03 12:49:41;;;;;;;;;;;18.90;80.90;;;17.51;75.25;100183.63;4992418;28;19972;-86
2021/08/03 12:52:15;;;;;;;;;;;18.90;81.00;;;17.51;75.44;100187.22;4990850;28;20417;-86
2021/08/03 12:54:55;;;;;;;;;;;18.90;81.00;;;17.52;75.22;100186.16;4974607;28;20297;-86
2021/08/03 12:57:23;;;;;;;;;;;19.00;80.50;;;17.52;75.29;100180.66;4991505;28;20692;-86
2021/08/03 12:59:51;;;;;;;;;;;18.90;80.60;;;17.53;74.97;100185.06;4974167;28;20012;-86
2021/08/03 13:02:19;;;;;;;;;;;19.00;80.00;;;17.56;75.05;100187.34;4991923;28;19999;-86
2021/08/03 13:04:47;;;;;;;;;;;19.00;80.20;;;17.57;74.60;100186.28;4992069;28;19922;-86
2021/08/03 13:07:17;;;;;;;;;;;19.10;79.50;;;17.59;74.50;100181.38;4991188;28;19926;-86
2021/08/03 13:09:44;;;;;;;;;;;19.10;79.10;;;17.62;74.07;100180.06;4991996;28;19932;-86
2021/08/03 13:12:13;;;;;;;;;;;19.10;78.60;;;17.63;74.09;100179.00;4991798;28;20023;-87
2021/08/03 13:14:40;;;;;;;;;;;19.20;78.70;;;17.64;74.19;100177.06;4991741;28;19925;-86
2021/08/03 13:17:07;;;;;;;;;;;19.30;78.30;;;17.66;73.43;100174.91;4991104;28;19984;-87
2021/08/03 13:19:34;;;;;;;;;;;19.40;77.40;;;17.67;73.22;100176.56;4991972;28;20040;-86
2021/08/03 13:22:02;;;;;;;;;;;19.40;77.30;;;17.68;72.98;100173.59;4991750;28;20421;-86
2021/08/03 13:24:30;;;;;;;;;;;19.40;76.90;;;17.70;71.60;100173.34;4991795;28;19930;-87
2021/08/03 13:26:57;;;;;;;;;;;19.50;76.00;;;17.71;72.40;100172.28;4990838;28;19972;-86
2021/08/03 13:29:25;;;;;;;;;;;19.60;76.10;;;17.76;72.10;100169.63;4991573;28;19932;-87
2021/08/03 13:31:52;;;;;;;;;;;19.70;75.40;;;17.78;71.87;100171.09;4991474;28;19925;-85
2021/08/03 13:34:20;;;;;;;;;;;19.80;74.80;;;17.83;72.12;100172.28;4990910;28;19930;-86
2021/08/03 13:36:47;;;;;;;;;;;20.00;74.50;;;17.86;70.61;100169.91;4973018;28;19944;-86
2021/08/03 13:39:14;;;;;;;;;;;20.00;73.00;;;17.89;70.84;100169.41;4991372;28;20473;-86
2021/08/03 13:41:42;;;;;;;;;;;20.10;73.10;;;17.92;70.53;100160.66;4991299;28;19926;-86
2021/08/03 13:44:09;;;;;;;;;;;20.10;72.60;;;17.97;70.06;100170.94;4991288;28;19929;-86
2021/08/03 13:46:36;;;;;;;;;;;20.10;72.50;;;18.00;70.50;100161.38;4990544;28;19980;-86
2021/08/03 13:49:03;;;;;;;;;;;20.20;73.10;;;18.01;70.84;100155.63;4991364;28;20016;-87
2021/08/03 13:51:31;;;;;;;;;;;20.20;73.00;;;18.05;71.31;100155.97;4991164;28;19930;-86
2021/08/03 13:53:58;;;;;;;;;;;20.30;73.50;;;18.08;71.88;100159.06;4991114;28;19926;-87
2021/08/03 13:56:25;;;;;;;;;;;20.40;73.60;;;18.11;70.97;100155.00;4990340;28;20358;-86
2021/08/03 13:58:54;;;;;;;;;;;20.40;73.20;;;18.12;69.66;100162.19;4991066;28;20356;-86
2021/08/03 14:01:21;;;;;;;;;;;20.40;72.20;;;18.12;69.27;100151.16;4990914;28;19926;-86
2021/08/03 14:03:49;;;;;;;;;;;20.30;71.90;;;18.14;69.78;100149.00;4990464;28;19984;-86
2021/08/03 14:06:16;;;;;;;;;;;20.30;72.30;;;18.15;70.18;100156.19;4990079;28;19933;-86
2021/08/03 14:08:43;;;;;;;;;;;20.20;72.80;;;18.14;70.48;100155.38;4990754;28;19929;-86
2021/08/03 14:11:10;;;;;;;;;;;20.20;72.40;;;18.16;69.89;100163.38;4990790;28;19922;-86
2021/08/03 14:13:37;;;;;;;;;;;20.20;72.80;;;18.17;68.87;100154.88;5071992;23;20022;-79
2021/08/03 14:16:06;;;;;;;;;;;20.10;71.80;;;18.15;68.47;100154.28;4990152;28;19980;-79
2021/08/03 14:18:34;;;;;;;;;;;20.10;72.10;;;18.16;69.40;100150.44;4990756;28;19925;-79
2021/08/03 14:21:02;;;;;;;;;;;20.10;72.70;;;18.17;69.68;100143.03;4972963;28;19931;-79
2021/08/03 14:23:29;;;;;;;;;;;20.20;72.20;;;18.18;69.61;100152.94;4990677;28;19926;-79
2021/08/03 14:25:56;;;;;;;;;;;20.20;72.30;;;18.21;69.78;100154.38;4989887;28;20024;-79
2021/08/03 14:28:23;;;;;;;;;;;20.20;72.80;;;18.23;70.47;100157.72;4990601;28;20390;-79
2021/08/03 14:30:50;;;;;;;;;;;20.20;73.50;;;18.21;69.33;100166.25;4990493;28;19975;-79
2021/08/03 14:33:19;;;;;;;;;;;20.20;72.10;;;18.21;69.63;100160.72;4990333;28;19926;-79
2021/08/03 14:35:46;;;;;;;;;;;20.10;73.20;;;18.21;69.31;100166.25;4990107;28;19926;-79
2021/08/03 14:38:13;;;;;;;;;;;20.10;72.10;;;18.22;68.69;100167.94;4989729;28;20276;-79
2021/08/03 14:40:40;;;;;;;;;;;20.00;71.90;;;18.23;68.93;100161.31;4990312;28;19925;-79
2021/08/03 14:43:07;;;;;;;;;;;20.10;72.50;;;18.22;68.66;100151.41;4990208;28;20007;-79
2021/08/03 14:45:34;;;;;;;;;;;20.20;71.80;;;18.24;69.29;100153.88;4990200;28;20011;-79
2021/08/03 14:48:01;;;;;;;;;;;20.20;72.30;;;18.24;68.78;100149.22;4988082;28;19926;-79
2021/08/03 14:50:30;;;;;;;;;;;20.20;71.90;;;18.25;69.18;100150.88;4989989;28;19969;-79
2021/08/03 14:52:57;;;;;;;;;;;20.10;71.30;;;18.23;68.08;100143.97;4990042;28;19925;-79
2021/08/03 14:55:24;;;;;;;;;;;20.00;71.50;;;18.23;68.07;100147.53;4990242;28;19925;-79
2021/08/03 14:57:51;;;;;;;;;;;20.00;72.00;;;18.22;68.76;100145.03;4989598;28;19925;-79
2021/08/03 15:00:18;;;;;;;;;;;20.00;72.60;;;18.23;68.85;100158.56;4972553;28;20004;-79
2021/08/03 15:02:45;;;;;;;;;;;19.90;73.30;;;18.23;68.84;100147.53;4990130;28;19926;-79
2021/08/03 15:05:12;;;;;;;;;;;19.90;73.60;;;18.22;68.61;100145.88;4989946;28;19926;-79
2021/08/03 15:07:40;;;;;;;;;;;19.90;72.70;;;18.22;68.24;100150.53;4989281;28;19953;-79
2021/08/03 15:10:08;;;;;;;;;;;19.90;72.10;;;18.21;68.03;100146.94;4990037;28;19926;-79
2021/08/03 15:12:35;;;;;;;;;;;19.80;72.90;;;18.22;67.25;100151.41;4972208;28;19957;-79
2021/08/03 15:15:02;;;;;;;;;;;19.90;71.90;;;18.22;67.88;100150.53;4988916;28;19925;-79
2021/08/03 15:17:30;;;;;;;;;;;19.90;72.40;;;18.23;67.71;100147.53;4989033;28;19922;-79
2021/08/03 15:19:59;;;;;;;;;;;19.90;72.10;;;18.24;68.15;100145.63;4989843;28;20008;-79
2021/08/03 15:22:27;;;;;;;;;;;19.90;72.70;;;18.25;68.30;100145.38;4972191;28;19983;-79
2021/08/03 15:24:55;;;;;;;;;;;20.00;72.60;;;18.28;68.11;100149.59;4989786;28;20452;-79
2021/08/03 15:27:23;;;;;;;;;;;20.10;72.30;;;18.29;67.70;100152.06;4989096;28;19925;-79
2021/08/03 15:29:50;;;;;;;;;;;20.10;71.90;;;18.32;68.49;100150.75;4989821;28;19921;-79
2021/08/03 15:32:17;;;;;;;;;;;20.20;72.70;;;18.32;68.95;100137.81;4972146;28;20396;-79
2021/08/03 15:34:44;;;;;;;;;;;20.20;72.20;;;18.32;68.36;100140.56;4971885;28;19969;-79
2021/08/03 15:37:11;;;;;;;;;;;20.30;72.50;;;18.32;68.43;100146.09;4988609;28;19947;-79
2021/08/03 15:39:38;;;;;;;;;;;20.30;72.50;;;18.31;66.84;100133.38;4989614;28;20028;-79
2021/08/03 15:42:06;;;;;;;;;;;20.20;71.40;;;18.33;67.21;100134.00;4989573;28;20048;-79
2021/08/03 15:44:33;;;;;;;;;;;20.20;71.30;;;18.35;67.75;100128.22;4989403;28;19922;-79
2021/08/03 15:47:00;;;;;;;;;;;20.20;71.30;;;18.36;67.77;100125.22;4988666;28;20395;-79
2021/08/03 15:49:28;;;;;;;;;;;20.20;71.40;;;18.35;67.72;100129.06;4989527;28;20036;-79
2021/08/03 15:51:57;;;;;;;;;;;20.20;72.20;;;18.36;67.59;100130.72;4989378;28;19926;-79
2021/08/03 15:54:24;;;;;;;;;;;20.20;72.00;;;18.38;67.67;100135.16;4989386;28;20712;-79
2021/08/03 15:56:51;;;;;;;;;;;20.20;70.70;;;18.36;67.33;100139.00;4971128;28;20019;-79
2021/08/03 15:59:19;;;;;;;;;;;20.20;71.40;;;18.34;68.00;100137.56;4989618;28;19975;-79
2021/08/03 16:01:46;;;;;;;;;;;20.20;71.70;;;18.34;67.95;100138.41;4988055;28;19925;-79
2021/08/03 16:04:13;;;;;;;;;;;20.10;72.20;;;18.34;67.63;100132.91;4989479;28;20024;-79
2021/08/03 16:06:40;;;;;;;;;;;20.10;71.70;;;18.35;67.78;100133.72;4988763;28;19929;-79
2021/08/03 16:09:08;;;;;;;;;;;20.10;72.00;;;18.36;68.07;100135.41;4989492;28;20017;-79
2021/08/03 16:11:35;;;;;;;;;;;20.10;72.60;;;18.35;68.13;100126.31;4989284;28;20017;-79
2021/08/03 16:14:02;;;;;;;;;;;20.00;72.50;;;18.35;68.00;100131.81;4989157;28;20020;-79
2021/08/03 16:16:31;;;;;;;;;;;20.00;71.70;;;18.34;67.01;100124.63;4988514;28;20037;-79
2021/08/03 16:19:02;;;;;;;;;;;20.00;71.00;;;18.35;66.25;100128.22;4989299;28;19926;-80
2021/08/03 16:21:30;;;;;;;;;;;19.90;70.70;;;18.34;66.63;100132.91;4989255;28;19926;-79
2021/08/03 16:23:57;;;;;;;;;;;19.90;71.50;;;18.32;67.11;100124.03;4989124;28;19925;-79
2021/08/03 16:26:26;;;;;;;;;;;19.80;71.20;;;18.32;66.94;100121.28;4990136;28;20366;-79
2021/08/03 16:28:55;;;;;;;;;;;19.90;72.30;;;18.32;66.64;100124.03;4992829;28;20413;-79
2021/08/03 16:31:26;;;;;;;;;;;19.90;72.00;;;18.32;67.02;100129.56;4974922;28;20449;-79
2021/08/03 16:33:57;;;;;;;;;;;19.90;71.60;;;18.32;66.70;100129.56;4992576;28;20429;-79
2021/08/03 16:36:26;;;;;;;;;;;19.90;71.40;;;18.32;66.26;100132.31;4974337;28;19926;-79
2021/08/03 16:38:55;;;;;;;;;;;19.90;71.30;;;18.34;66.46;100126.56;4992723;28;20020;-79
2021/08/03 16:41:23;;;;;;;;;;;19.90;71.30;;;18.34;66.25;100127.38;4992578;28;19976;-79
2021/08/03 16:43:52;;;;;;;;;;;19.90;71.40;;;18.35;66.85;100130.97;4992503;28;19956;-79
2021/08/03 16:46:19;;;;;;;;;;;19.90;72.20;;;18.34;67.11;100127.38;4991725;28;19929;-79
2021/08/03 16:48:46;;;;;;;;;;;19.90;72.20;;;18.34;67.55;100115.53;4992328;28;19965;-79
2021/08/03 16:51:17;;;;;;;;;;;19.90;72.70;;;18.33;67.75;100125.72;4974525;28;19960;-79
2021/08/03 16:53:45;;;;;;;;;;;19.90;72.90;;;18.35;67.23;100129.06;4992155;28;19929;-79
2021/08/03 16:56:12;;;;;;;;;;;19.90;71.70;;;18.35;66.75;100129.06;4991444;28;20468;-79
2021/08/03 16:58:39;;;;;;;;;;;19.90;71.40;;;18.35;65.88;100129.06;4992299;28;19976;-79
2021/08/03 17:01:11;;;;;;;;;;;19.90;71.00;;;18.34;65.65;100132.06;4974524;28;19988;-79
2021/08/03 17:03:47;;;;;;;;;;;19.90;71.30;;;18.35;65.97;100129.06;4991986;28;19932;-79
2021/08/03 17:06:19;;;;;;;;;;;19.90;70.30;;;18.35;65.91;100128.22;4991401;28;20016;-79
2021/08/03 17:08:55;;;;;;;;;;;19.90;71.30;;;18.35;66.26;100129.06;4992218;28;19932;-79
2021/08/03 17:11:30;;;;;;;;;;;19.90;71.40;;;18.35;66.57;100123.56;4974340;28;19925;-79
2021/08/03 17:14:01;;;;;;;;;;;19.90;71.80;;;18.38;67.16;100135.16;4991575;28;19925;-79
2021/08/03 17:16:30;;;;;;;;;;;20.00;71.80;;;18.36;67.06;100122.47;4991262;28;19926;-79
2021/08/03 17:18:57;;;;;;;;;;;19.90;72.00;;;18.36;66.99;100122.47;4974251;28;19961;-79
2021/08/03 17:21:27;;;;;;;;;;;20.00;72.10;;;18.37;67.36;100120.53;4991841;28;20023;-79
2021/08/03 17:24:02;;;;;;;;;;;19.90;72.20;;;18.37;67.34;100126.03;5015373;23;19929;-79
2021/08/03 17:26:32;;;;;;;;;;;19.90;72.50;;;18.35;67.89;100134.59;4990842;28;19977;-79